sensor_id;sensor_type;location;lat;lon;timestamp;P1;durP1;ratioP1;P2;durP2;ratioP2
71836;SDS011;59686;51.716;7.016;2022-07-21T00:02:32;8.43;;;7.63;;
71836;SDS011;59686;51.716;7.016;2022-07-21T00:04:58;8.68;;;6.90;;
71836;SDS011;59686;51.716;7.016;2022-07-21T00:07:24;8.45;;;7.57;;
71836;SDS011;59686;51.716;7.016;2022-07-21T00:09:49;7.68;;;6.88;;
71836;SDS011;59686;51.716;7.016;2022-07-21T00:12:15;7.22;;;6.45;;
71836;SDS011;59686;51.716;7.016;2022-07-21T00:17:47;7.80;;;7.05;;
71836;SDS011;59686;51.716;7.016;2022-07-21T00:20:14;7.90;;;7.03;;
71836;SDS011;59686;51.716;7.016;2022-07-21T00:22:41;7.80;;;7.05;;
71836;SDS011;59686;51.716;7.016;2022-07-21T00:25:08;8.02;;;7.25;;
71836;SDS011;59686;51.716;7.016;2022-07-21T00:27:34;7.57;;;6.88;;
71836;SDS011;59686;51.716;7.016;2022-07-21T00:32:41;8.00;;;7.20;;
71836;SDS011;59686;51.716;7.016;2022-07-21T00:35:08;7.63;;;6.65;;
71836;SDS011;59686;51.716;7.016;2022-07-21T00:37:35;7.47;;;6.72;;
71836;SDS011;59686;51.716;7.016;2022-07-21T00:40:02;7.35;;;6.55;;
71836;SDS011;59686;51.716;7.016;2022-07-21T00:42:29;7.72;;;6.93;;
71836;SDS011;59686;51.716;7.016;2022-07-21T00:44:57;7.03;;;6.10;;
71836;SDS011;59686;51.716;7.016;2022-07-21T00:47:28;7.25;;;6.55;;
71836;SDS011;59686;51.716;7.016;2022-07-21T00:49:55;7.05;;;6.40;;
71836;SDS011;59686;51.716;7.016;2022-07-21T00:52:22;8.13;;;7.10;;
71836;SDS011;59686;51.716;7.016;2022-07-21T00:54:47;7.85;;;5.80;;
71836;SDS011;59686;51.716;7.016;2022-07-21T00:57:20;6.97;;;5.82;;
71836;SDS011;59686;51.716;7.016;2022-07-21T00:59:46;7.63;;;6.30;;
71836;SDS011;59686;51.716;7.016;2022-07-21T01:02:13;7.82;;;6.22;;
71836;SDS011;59686;51.716;7.016;2022-07-21T01:04:39;7.28;;;6.10;;
71836;SDS011;59686;51.716;7.016;2022-07-21T01:07:05;6.90;;;6.18;;
71836;SDS011;59686;51.716;7.016;2022-07-21T01:09:33;7.25;;;6.47;;
71836;SDS011;59686;51.716;7.016;2022-07-21T01:11:59;7.20;;;5.90;;
71836;SDS011;59686;51.716;7.016;2022-07-21T01:14:26;7.47;;;6.30;;
71836;SDS011;59686;51.716;7.016;2022-07-21T01:16:52;7.00;;;6.32;;
71836;SDS011;59686;51.716;7.016;2022-07-21T01:19:17;6.47;;;5.82;;
71836;SDS011;59686;51.716;7.016;2022-07-21T01:21:45;6.88;;;6.25;;
71836;SDS011;59686;51.716;7.016;2022-07-21T01:24:12;7.53;;;5.97;;
71836;SDS011;59686;51.716;7.016;2022-07-21T01:26:41;7.55;;;6.13;;
71836;SDS011;59686;51.716;7.016;2022-07-21T01:29:11;9.45;;;6.70;;
71836;SDS011;59686;51.716;7.016;2022-07-21T01:31:38;7.78;;;6.28;;
71836;SDS011;59686;51.716;7.016;2022-07-21T01:34:06;7.57;;;6.72;;
71836;SDS011;59686;51.716;7.016;2022-07-21T01:36:32;6.40;;;5.80;;
71836;SDS011;59686;51.716;7.016;2022-07-21T01:38:58;7.47;;;6.35;;
71836;SDS011;59686;51.716;7.016;2022-07-21T01:41:43;7.38;;;6.55;;
71836;SDS011;59686;51.716;7.016;2022-07-21T01:44:09;7.85;;;6.43;;
71836;SDS011;59686;51.716;7.016;2022-07-21T01:46:37;8.10;;;6.32;;
71836;SDS011;59686;51.716;7.016;2022-07-21T01:49:05;6.82;;;6.07;;
71836;SDS011;59686;51.716;7.016;2022-07-21T01:51:31;7.20;;;6.50;;
71836;SDS011;59686;51.716;7.016;2022-07-21T01:53:58;7.57;;;6.85;;
71836;SDS011;59686;51.716;7.016;2022-07-21T01:56:25;7.07;;;6.38;;
71836;SDS011;59686;51.716;7.016;2022-07-21T01:58:52;7.53;;;6.30;;
71836;SDS011;59686;51.716;7.016;2022-07-21T02:01:25;7.68;;;6.60;;
71836;SDS011;59686;51.716;7.016;2022-07-21T02:03:52;7.00;;;6.30;;
71836;SDS011;59686;51.716;7.016;2022-07-21T02:06:18;10.13;;;7.05;;
71836;SDS011;59686;51.716;7.016;2022-07-21T02:08:45;7.32;;;6.65;;
71836;SDS011;59686;51.716;7.016;2022-07-21T02:11:13;8.65;;;6.30;;
71836;SDS011;59686;51.716;7.016;2022-07-21T02:13:40;7.22;;;6.35;;
71836;SDS011;59686;51.716;7.016;2022-07-21T02:16:06;7.35;;;6.65;;
71836;SDS011;59686;51.716;7.016;2022-07-21T02:18:32;7.00;;;6.30;;
71836;SDS011;59686;51.716;7.016;2022-07-21T02:20:58;7.47;;;6.70;;
71836;SDS011;59686;51.716;7.016;2022-07-21T02:23:24;8.25;;;6.68;;
71836;SDS011;59686;51.716;7.016;2022-07-21T02:25:51;9.57;;;6.72;;
71836;SDS011;59686;51.716;7.016;2022-07-21T02:28:17;6.53;;;5.88;;
71836;SDS011;59686;51.716;7.016;2022-07-21T02:30:47;7.55;;;6.10;;
71836;SDS011;59686;51.716;7.016;2022-07-21T02:33:13;7.68;;;6.60;;
71836;SDS011;59686;51.716;7.016;2022-07-21T02:35:39;6.93;;;6.22;;
71836;SDS011;59686;51.716;7.016;2022-07-21T02:38:05;7.10;;;6.40;;
71836;SDS011;59686;51.716;7.016;2022-07-21T02:40:31;7.32;;;6.10;;
71836;SDS011;59686;51.716;7.016;2022-07-21T02:42:57;7.07;;;6.38;;
71836;SDS011;59686;51.716;7.016;2022-07-21T02:45:23;6.82;;;6.13;;
71836;SDS011;59686;51.716;7.016;2022-07-21T02:48:00;7.32;;;6.35;;
71836;SDS011;59686;51.716;7.016;2022-07-21T02:50:31;8.52;;;5.90;;
71836;SDS011;59686;51.716;7.016;2022-07-21T02:53:05;6.53;;;5.93;;
71836;SDS011;59686;51.716;7.016;2022-07-21T02:55:33;6.25;;;5.65;;
71836;SDS011;59686;51.716;7.016;2022-07-21T02:58:09;6.63;;;5.93;;
71836;SDS011;59686;51.716;7.016;2022-07-21T03:00:43;6.78;;;6.10;;
71836;SDS011;59686;51.716;7.016;2022-07-21T03:03:13;6.50;;;5.40;;
71836;SDS011;59686;51.716;7.016;2022-07-21T03:05:39;6.28;;;5.68;;
71836;SDS011;59686;51.716;7.016;2022-07-21T03:08:05;5.75;;;5.15;;
71836;SDS011;59686;51.716;7.016;2022-07-21T03:10:44;5.53;;;4.88;;
71836;SDS011;59686;51.716;7.016;2022-07-21T03:13:10;6.00;;;5.40;;
71836;SDS011;59686;51.716;7.016;2022-07-21T03:15:36;5.57;;;5.07;;
71836;SDS011;59686;51.716;7.016;2022-07-21T03:18:02;6.35;;;5.28;;
71836;SDS011;59686;51.716;7.016;2022-07-21T03:20:30;5.90;;;5.30;;
71836;SDS011;59686;51.716;7.016;2022-07-21T03:22:57;5.82;;;5.13;;
71836;SDS011;59686;51.716;7.016;2022-07-21T03:25:22;6.25;;;5.05;;
71836;SDS011;59686;51.716;7.016;2022-07-21T03:27:49;6.45;;;5.47;;
71836;SDS011;59686;51.716;7.016;2022-07-21T03:30:15;6.50;;;5.90;;
71836;SDS011;59686;51.716;7.016;2022-07-21T03:32:41;5.82;;;5.30;;
71836;SDS011;59686;51.716;7.016;2022-07-21T03:35:08;6.03;;;5.25;;
71836;SDS011;59686;51.716;7.016;2022-07-21T03:37:42;6.05;;;5.38;;
71836;SDS011;59686;51.716;7.016;2022-07-21T03:40:12;6.85;;;5.68;;
71836;SDS011;59686;51.716;7.016;2022-07-21T03:42:39;6.80;;;5.55;;
71836;SDS011;59686;51.716;7.016;2022-07-21T03:45:06;6.32;;;5.72;;
71836;SDS011;59686;51.716;7.016;2022-07-21T03:47:32;6.30;;;5.70;;
71836;SDS011;59686;51.716;7.016;2022-07-21T03:49:58;7.03;;;5.45;;
71836;SDS011;59686;51.716;7.016;2022-07-21T03:52:24;5.90;;;5.40;;
71836;SDS011;59686;51.716;7.016;2022-07-21T03:54:50;6.97;;;5.38;;
71836;SDS011;59686;51.716;7.016;2022-07-21T03:57:33;6.50;;;5.80;;
71836;SDS011;59686;51.716;7.016;2022-07-21T04:00:07;6.20;;;5.57;;
71836;SDS011;59686;51.716;7.016;2022-07-21T04:02:35;6.30;;;5.70;;
71836;SDS011;59686;51.716;7.016;2022-07-21T04:05:01;7.50;;;5.97;;
71836;SDS011;59686;51.716;7.016;2022-07-21T04:07:28;8.25;;;6.10;;
71836;SDS011;59686;51.716;7.016;2022-07-21T04:09:54;6.30;;;5.53;;
71836;SDS011;59686;51.716;7.016;2022-07-21T04:12:20;6.88;;;5.97;;
71836;SDS011;59686;51.716;7.016;2022-07-21T04:14:49;7.00;;;6.35;;
71836;SDS011;59686;51.716;7.016;2022-07-21T04:17:15;6.75;;;6.05;;
71836;SDS011;59686;51.716;7.016;2022-07-21T04:19:40;6.53;;;5.93;;
71836;SDS011;59686;51.716;7.016;2022-07-21T04:22:06;6.70;;;6.00;;
71836;SDS011;59686;51.716;7.016;2022-07-21T04:24:41;6.68;;;5.70;;
71836;SDS011;59686;51.716;7.016;2022-07-21T04:27:07;6.30;;;5.70;;
71836;SDS011;59686;51.716;7.016;2022-07-21T04:29:33;6.70;;;6.00;;
71836;SDS011;59686;51.716;7.016;2022-07-21T04:31:58;7.53;;;6.43;;
71836;SDS011;59686;51.716;7.016;2022-07-21T04:34:24;7.35;;;5.78;;
71836;SDS011;59686;51.716;7.016;2022-07-21T04:36:50;6.72;;;5.85;;
71836;SDS011;59686;51.716;7.016;2022-07-21T04:39:16;6.25;;;5.65;;
71836;SDS011;59686;51.716;7.016;2022-07-21T04:41:42;7.15;;;5.72;;
71836;SDS011;59686;51.716;7.016;2022-07-21T04:44:07;5.90;;;5.40;;
71836;SDS011;59686;51.716;7.016;2022-07-21T04:46:33;5.78;;;5.20;;
71836;SDS011;59686;51.716;7.016;2022-07-21T04:48:58;6.15;;;5.55;;
71836;SDS011;59686;51.716;7.016;2022-07-21T04:53:58;5.72;;;5.13;;
71836;SDS011;59686;51.716;7.016;2022-07-21T04:56:27;6.72;;;5.40;;
71836;SDS011;59686;51.716;7.016;2022-07-21T04:58:53;6.95;;;5.88;;
71836;SDS011;59686;51.716;7.016;2022-07-21T05:01:18;5.80;;;5.28;;
71836;SDS011;59686;51.716;7.016;2022-07-21T05:03:44;5.80;;;5.30;;
71836;SDS011;59686;51.716;7.016;2022-07-21T05:06:10;6.53;;;5.80;;
71836;SDS011;59686;51.716;7.016;2022-07-21T05:08:36;5.78;;;5.20;;
71836;SDS011;59686;51.716;7.016;2022-07-21T05:11:01;5.80;;;5.30;;
71836;SDS011;59686;51.716;7.016;2022-07-21T05:13:44;5.63;;;5.05;;
71836;SDS011;59686;51.716;7.016;2022-07-21T05:16:09;6.15;;;5.55;;
71836;SDS011;59686;51.716;7.016;2022-07-21T05:18:35;6.15;;;5.55;;
71836;SDS011;59686;51.716;7.016;2022-07-21T05:21:01;6.15;;;5.65;;
71836;SDS011;59686;51.716;7.016;2022-07-21T05:23:27;6.05;;;5.55;;
71836;SDS011;59686;51.716;7.016;2022-07-21T05:25:53;5.88;;;5.30;;
71836;SDS011;59686;51.716;7.016;2022-07-21T05:28:18;7.18;;;5.88;;
71836;SDS011;59686;51.716;7.016;2022-07-21T05:30:44;6.13;;;5.45;;
71836;SDS011;59686;51.716;7.016;2022-07-21T05:33:10;6.75;;;5.80;;
71836;SDS011;59686;51.716;7.016;2022-07-21T05:35:38;7.07;;;5.63;;
71836;SDS011;59686;51.716;7.016;2022-07-21T05:38:04;5.85;;;5.30;;
71836;SDS011;59686;51.716;7.016;2022-07-21T05:40:30;6.07;;;5.30;;
71836;SDS011;59686;51.716;7.016;2022-07-21T05:42:56;6.32;;;5.43;;
71836;SDS011;59686;51.716;7.016;2022-07-21T05:45:22;6.10;;;5.50;;
71836;SDS011;59686;51.716;7.016;2022-07-21T05:47:48;6.05;;;5.55;;
71836;SDS011;59686;51.716;7.016;2022-07-21T05:50:14;6.38;;;5.65;;
71836;SDS011;59686;51.716;7.016;2022-07-21T05:52:40;5.75;;;5.25;;
71836;SDS011;59686;51.716;7.016;2022-07-21T05:55:06;5.95;;;5.45;;
71836;SDS011;59686;51.716;7.016;2022-07-21T05:57:32;6.55;;;5.50;;
71836;SDS011;59686;51.716;7.016;2022-07-21T06:00:03;7.07;;;5.78;;
71836;SDS011;59686;51.716;7.016;2022-07-21T06:02:29;6.55;;;5.95;;
71836;SDS011;59686;51.716;7.016;2022-07-21T06:04:56;6.50;;;5.90;;
71836;SDS011;59686;51.716;7.016;2022-07-21T06:07:22;6.50;;;5.90;;
71836;SDS011;59686;51.716;7.016;2022-07-21T06:09:48;6.40;;;5.78;;
71836;SDS011;59686;51.716;7.016;2022-07-21T06:12:14;6.63;;;5.95;;
71836;SDS011;59686;51.716;7.016;2022-07-21T06:14:42;6.97;;;6.30;;
71836;SDS011;59686;51.716;7.016;2022-07-21T06:17:07;8.23;;;6.43;;
71836;SDS011;59686;51.716;7.016;2022-07-21T06:19:33;6.43;;;5.78;;
71836;SDS011;59686;51.716;7.016;2022-07-21T06:21:59;6.60;;;6.00;;
71836;SDS011;59686;51.716;7.016;2022-07-21T06:24:25;7.00;;;6.30;;
71836;SDS011;59686;51.716;7.016;2022-07-21T06:26:54;7.50;;;6.47;;
71836;SDS011;59686;51.716;7.016;2022-07-21T06:29:21;6.68;;;6.07;;
71836;SDS011;59686;51.716;7.016;2022-07-21T06:31:47;8.05;;;6.10;;
71836;SDS011;59686;51.716;7.016;2022-07-21T06:34:31;8.32;;;6.80;;
71836;SDS011;59686;51.716;7.016;2022-07-21T06:36:57;7.78;;;6.82;;
71836;SDS011;59686;51.716;7.016;2022-07-21T06:39:23;7.95;;;7.15;;
71836;SDS011;59686;51.716;7.016;2022-07-21T06:41:48;7.15;;;6.45;;
71836;SDS011;59686;51.716;7.016;2022-07-21T06:44:14;8.23;;;7.07;;
71836;SDS011;59686;51.716;7.016;2022-07-21T06:46:39;8.02;;;7.13;;
71836;SDS011;59686;51.716;7.016;2022-07-21T06:49:05;10.45;;;7.40;;
71836;SDS011;59686;51.716;7.016;2022-07-21T06:51:31;7.57;;;6.88;;
71836;SDS011;59686;51.716;7.016;2022-07-21T06:53:56;7.75;;;7.05;;
71836;SDS011;59686;51.716;7.016;2022-07-21T06:56:22;7.75;;;7.05;;
71836;SDS011;59686;51.716;7.016;2022-07-21T06:58:48;7.57;;;6.88;;
71836;SDS011;59686;51.716;7.016;2022-07-21T07:01:13;7.40;;;6.70;;
71836;SDS011;59686;51.716;7.016;2022-07-21T07:03:41;8.07;;;6.88;;
71836;SDS011;59686;51.716;7.016;2022-07-21T07:06:07;7.63;;;6.82;;
71836;SDS011;59686;51.716;7.016;2022-07-21T07:08:34;9.30;;;6.75;;
71836;SDS011;59686;51.716;7.016;2022-07-21T07:10:59;10.35;;;7.10;;
71836;SDS011;59686;51.716;7.016;2022-07-21T07:13:25;8.00;;;7.18;;
71836;SDS011;59686;51.716;7.016;2022-07-21T07:15:53;8.38;;;6.75;;
71836;SDS011;59686;51.716;7.016;2022-07-21T07:18:19;8.38;;;7.05;;
71836;SDS011;59686;51.716;7.016;2022-07-21T07:20:47;8.65;;;7.75;;
71836;SDS011;59686;51.716;7.016;2022-07-21T07:23:12;7.28;;;6.57;;
71836;SDS011;59686;51.716;7.016;2022-07-21T07:25:38;7.88;;;7.07;;
71836;SDS011;59686;51.716;7.016;2022-07-21T07:28:04;8.07;;;6.90;;
71836;SDS011;59686;51.716;7.016;2022-07-21T07:30:31;7.85;;;7.05;;
71836;SDS011;59686;51.716;7.016;2022-07-21T07:32:57;8.35;;;6.78;;
71836;SDS011;59686;51.716;7.016;2022-07-21T07:35:22;8.57;;;7.07;;
71836;SDS011;59686;51.716;7.016;2022-07-21T07:37:48;8.25;;;7.10;;
71836;SDS011;59686;51.716;7.016;2022-07-21T07:40:15;8.00;;;7.25;;
71836;SDS011;59686;51.716;7.016;2022-07-21T07:42:44;8.60;;;7.40;;
71836;SDS011;59686;51.716;7.016;2022-07-21T07:45:11;7.90;;;6.97;;
71836;SDS011;59686;51.716;7.016;2022-07-21T07:47:37;8.02;;;7.22;;
71836;SDS011;59686;51.716;7.016;2022-07-21T07:50:04;9.77;;;7.72;;
71836;SDS011;59686;51.716;7.016;2022-07-21T07:52:31;8.38;;;7.32;;
71836;SDS011;59686;51.716;7.016;2022-07-21T07:54:57;8.80;;;7.30;;
71836;SDS011;59686;51.716;7.016;2022-07-21T07:57:23;9.57;;;7.38;;
71836;SDS011;59686;51.716;7.016;2022-07-21T07:59:55;7.93;;;7.13;;
71836;SDS011;59686;51.716;7.016;2022-07-21T08:02:20;8.10;;;7.15;;
71836;SDS011;59686;51.716;7.016;2022-07-21T08:04:48;7.75;;;7.00;;
71836;SDS011;59686;51.716;7.016;2022-07-21T08:07:14;9.93;;;7.38;;
71836;SDS011;59686;51.716;7.016;2022-07-21T08:09:39;7.05;;;6.35;;
71836;SDS011;59686;51.716;7.016;2022-07-21T08:12:05;7.28;;;6.57;;
71836;SDS011;59686;51.716;7.016;2022-07-21T08:14:31;7.72;;;6.93;;
71836;SDS011;59686;51.716;7.016;2022-07-21T08:16:57;8.27;;;6.90;;
71836;SDS011;59686;51.716;7.016;2022-07-21T08:19:24;7.38;;;6.55;;
71836;SDS011;59686;51.716;7.016;2022-07-21T08:21:50;7.68;;;6.65;;
71836;SDS011;59686;51.716;7.016;2022-07-21T08:24:15;7.25;;;6.55;;
71836;SDS011;59686;51.716;7.016;2022-07-21T08:26:41;7.28;;;6.57;;
71836;SDS011;59686;51.716;7.016;2022-07-21T08:29:07;7.80;;;6.57;;
71836;SDS011;59686;51.716;7.016;2022-07-21T08:31:42;8.68;;;6.78;;
71836;SDS011;59686;51.716;7.016;2022-07-21T08:34:08;8.40;;;6.32;;
71836;SDS011;59686;51.716;7.016;2022-07-21T08:36:33;7.07;;;6.25;;
71836;SDS011;59686;51.716;7.016;2022-07-21T08:38:59;9.25;;;6.28;;
71836;SDS011;59686;51.716;7.016;2022-07-21T08:41:25;9.93;;;6.55;;
71836;SDS011;59686;51.716;7.016;2022-07-21T08:43:51;10.73;;;6.60;;
71836;SDS011;59686;51.716;7.016;2022-07-21T08:46:18;7.88;;;6.13;;
71836;SDS011;59686;51.716;7.016;2022-07-21T08:48:47;10.00;;;6.25;;
71836;SDS011;59686;51.716;7.016;2022-07-21T08:51:14;8.18;;;6.65;;
71836;SDS011;59686;51.716;7.016;2022-07-21T08:53:43;9.32;;;5.95;;
71836;SDS011;59686;51.716;7.016;2022-07-21T08:56:10;7.15;;;5.35;;
71836;SDS011;59686;51.716;7.016;2022-07-21T08:58:36;8.38;;;6.03;;
71836;SDS011;59686;51.716;7.016;2022-07-21T09:01:03;8.38;;;5.50;;
71836;SDS011;59686;51.716;7.016;2022-07-21T09:03:29;6.28;;;5.68;;
71836;SDS011;59686;51.716;7.016;2022-07-21T09:06:05;6.00;;;5.40;;
71836;SDS011;59686;51.716;7.016;2022-07-21T09:11:27;5.72;;;5.22;;
71836;SDS011;59686;51.716;7.016;2022-07-21T09:14:06;7.65;;;5.32;;
71836;SDS011;59686;51.716;7.016;2022-07-21T09:19:04;7.78;;;5.53;;
71836;SDS011;59686;51.716;7.016;2022-07-21T09:21:32;8.43;;;5.53;;
71836;SDS011;59686;51.716;7.016;2022-07-21T09:27:13;6.78;;;4.70;;
71836;SDS011;59686;51.716;7.016;2022-07-21T09:34:50;6.25;;;4.72;;
71836;SDS011;59686;51.716;7.016;2022-07-21T09:37:23;5.72;;;5.15;;
71836;SDS011;59686;51.716;7.016;2022-07-21T09:39:54;8.50;;;5.13;;
71836;SDS011;59686;51.716;7.016;2022-07-21T09:42:32;6.60;;;4.93;;
71836;SDS011;59686;51.716;7.016;2022-07-21T09:45:07;6.82;;;5.10;;
71836;SDS011;59686;51.716;7.016;2022-07-21T09:47:37;8.10;;;6.22;;
71836;SDS011;59686;51.716;7.016;2022-07-21T09:50:04;12.63;;;6.75;;
71836;SDS011;59686;51.716;7.016;2022-07-21T09:52:32;11.55;;;6.68;;
71836;SDS011;59686;51.716;7.016;2022-07-21T09:55:12;10.93;;;6.72;;
71836;SDS011;59686;51.716;7.016;2022-07-21T09:57:42;9.70;;;7.07;;
71836;SDS011;59686;51.716;7.016;2022-07-21T10:00:11;8.98;;;6.18;;
71836;SDS011;59686;51.716;7.016;2022-07-21T10:02:42;10.23;;;6.88;;
71836;SDS011;59686;51.716;7.016;2022-07-21T10:05:10;8.77;;;6.50;;
71836;SDS011;59686;51.716;7.016;2022-07-21T10:07:39;7.88;;;6.30;;
71836;SDS011;59686;51.716;7.016;2022-07-21T10:10:10;8.38;;;6.20;;
71836;SDS011;59686;51.716;7.016;2022-07-21T10:12:37;7.70;;;6.32;;
71836;SDS011;59686;51.716;7.016;2022-07-21T10:15:03;10.15;;;6.78;;
71836;SDS011;59686;51.716;7.016;2022-07-21T10:17:30;11.90;;;6.80;;
71836;SDS011;59686;51.716;7.016;2022-07-21T10:20:08;15.35;;;7.63;;
71836;SDS011;59686;51.716;7.016;2022-07-21T10:25:53;11.73;;;6.75;;
71836;SDS011;59686;51.716;7.016;2022-07-21T10:28:20;8.25;;;6.68;;
71836;SDS011;59686;51.716;7.016;2022-07-21T10:30:49;9.30;;;6.90;;
71836;SDS011;59686;51.716;7.016;2022-07-21T10:35:48;8.30;;;6.57;;
71836;SDS011;59686;51.716;7.016;2022-07-21T10:38:25;7.63;;;6.70;;
71836;SDS011;59686;51.716;7.016;2022-07-21T10:40:55;13.13;;;6.63;;
71836;SDS011;59686;51.716;7.016;2022-07-21T10:45:51;12.20;;;6.70;;
71836;SDS011;59686;51.716;7.016;2022-07-21T10:51:08;8.90;;;6.75;;
71836;SDS011;59686;51.716;7.016;2022-07-21T10:53:40;8.85;;;6.82;;
71836;SDS011;59686;51.716;7.016;2022-07-21T10:56:07;9.52;;;7.22;;
71836;SDS011;59686;51.716;7.016;2022-07-21T10:58:33;12.00;;;7.15;;
71836;SDS011;59686;51.716;7.016;2022-07-21T11:03:40;16.35;;;9.18;;
71836;SDS011;59686;51.716;7.016;2022-07-21T11:06:22;14.38;;;8.18;;
71836;SDS011;59686;51.716;7.016;2022-07-21T11:11:30;10.43;;;8.60;;
71836;SDS011;59686;51.716;7.016;2022-07-21T11:13:59;10.38;;;8.63;;
71836;SDS011;59686;51.716;7.016;2022-07-21T11:22:12;12.20;;;9.13;;
71836;SDS011;59686;51.716;7.016;2022-07-21T11:24:43;10.80;;;9.25;;
71836;SDS011;59686;51.716;7.016;2022-07-21T11:27:17;9.88;;;8.65;;
71836;SDS011;59686;51.716;7.016;2022-07-21T11:29:45;9.80;;;8.60;;
71836;SDS011;59686;51.716;7.016;2022-07-21T11:32:13;9.60;;;8.50;;
71836;SDS011;59686;51.716;7.016;2022-07-21T11:34:41;9.52;;;8.32;;
71836;SDS011;59686;51.716;7.016;2022-07-21T11:37:09;13.05;;;8.25;;
71836;SDS011;59686;51.716;7.016;2022-07-21T11:39:36;11.93;;;7.75;;
71836;SDS011;59686;51.716;7.016;2022-07-21T11:42:03;10.98;;;7.20;;
71836;SDS011;59686;51.716;7.016;2022-07-21T11:44:30;10.48;;;7.50;;
71836;SDS011;59686;51.716;7.016;2022-07-21T11:46:58;8.40;;;7.13;;
71836;SDS011;59686;51.716;7.016;2022-07-21T11:49:25;7.28;;;6.57;;
71836;SDS011;59686;51.716;7.016;2022-07-21T11:51:52;10.77;;;6.85;;
71836;SDS011;59686;51.716;7.016;2022-07-21T11:57:08;10.27;;;6.45;;
71836;SDS011;59686;51.716;7.016;2022-07-21T11:59:34;8.13;;;7.40;;
71836;SDS011;59686;51.716;7.016;2022-07-21T12:02:07;7.60;;;6.72;;
71836;SDS011;59686;51.716;7.016;2022-07-21T12:04:40;11.07;;;7.05;;
71836;SDS011;59686;51.716;7.016;2022-07-21T12:09:44;8.23;;;6.50;;
71836;SDS011;59686;51.716;7.016;2022-07-21T12:12:13;11.23;;;6.60;;
71836;SDS011;59686;51.716;7.016;2022-07-21T12:14:47;7.40;;;5.88;;
71836;SDS011;59686;51.716;7.016;2022-07-21T12:17:30;6.32;;;5.22;;
71836;SDS011;59686;51.716;7.016;2022-07-21T12:20:01;6.65;;;5.40;;
71836;SDS011;59686;51.716;7.016;2022-07-21T12:22:43;7.57;;;5.47;;
71836;SDS011;59686;51.716;7.016;2022-07-21T12:25:15;5.28;;;4.75;;
71836;SDS011;59686;51.716;7.016;2022-07-21T12:27:44;5.25;;;4.75;;
71836;SDS011;59686;51.716;7.016;2022-07-21T12:30:29;6.53;;;5.07;;
71836;SDS011;59686;51.716;7.016;2022-07-21T12:35:58;5.55;;;5.05;;
71836;SDS011;59686;51.716;7.016;2022-07-21T12:38:46;6.80;;;4.60;;
71836;SDS011;59686;51.716;7.016;2022-07-21T12:41:14;6.93;;;4.80;;
71836;SDS011;59686;51.716;7.016;2022-07-21T12:43:41;4.22;;;3.85;;
71836;SDS011;59686;51.716;7.016;2022-07-21T12:46:11;4.85;;;4.45;;
71836;SDS011;59686;51.716;7.016;2022-07-21T12:48:43;6.18;;;4.40;;
71836;SDS011;59686;51.716;7.016;2022-07-21T12:51:12;3.95;;;3.58;;
71836;SDS011;59686;51.716;7.016;2022-07-21T12:53:48;4.45;;;4.05;;
71836;SDS011;59686;51.716;7.016;2022-07-21T12:56:17;7.30;;;4.20;;
71836;SDS011;59686;51.716;7.016;2022-07-21T12:58:54;8.48;;;4.60;;
71836;SDS011;59686;51.716;7.016;2022-07-21T13:01:24;5.55;;;3.45;;
71836;SDS011;59686;51.716;7.016;2022-07-21T13:03:52;4.60;;;3.25;;
71836;SDS011;59686;51.716;7.016;2022-07-21T13:06:18;5.15;;;3.20;;
71836;SDS011;59686;51.716;7.016;2022-07-21T13:08:44;3.05;;;2.75;;
71836;SDS011;59686;51.716;7.016;2022-07-21T13:11:16;4.13;;;2.80;;
71836;SDS011;59686;51.716;7.016;2022-07-21T13:13:44;7.10;;;2.90;;
71836;SDS011;59686;51.716;7.016;2022-07-21T13:16:10;3.00;;;2.80;;
71836;SDS011;59686;51.716;7.016;2022-07-21T13:18:37;4.25;;;3.20;;
71836;SDS011;59686;51.716;7.016;2022-07-21T13:21:03;4.38;;;2.78;;
71836;SDS011;59686;51.716;7.016;2022-07-21T13:23:29;4.32;;;2.90;;
71836;SDS011;59686;51.716;7.016;2022-07-21T13:25:55;3.25;;;2.95;;
71836;SDS011;59686;51.716;7.016;2022-07-21T13:28:21;3.90;;;3.10;;
71836;SDS011;59686;51.716;7.016;2022-07-21T13:30:47;4.35;;;3.38;;
71836;SDS011;59686;51.716;7.016;2022-07-21T13:33:13;5.65;;;3.65;;
71836;SDS011;59686;51.716;7.016;2022-07-21T13:35:39;8.38;;;5.57;;
71836;SDS011;59686;51.716;7.016;2022-07-21T13:38:05;7.82;;;5.32;;
71836;SDS011;59686;51.716;7.016;2022-07-21T13:40:31;5.10;;;4.28;;
71836;SDS011;59686;51.716;7.016;2022-07-21T13:42:57;8.70;;;5.18;;
71836;SDS011;59686;51.716;7.016;2022-07-21T13:45:22;5.40;;;4.75;;
71836;SDS011;59686;51.716;7.016;2022-07-21T13:47:48;5.10;;;4.30;;
71836;SDS011;59686;51.716;7.016;2022-07-21T13:50:14;5.80;;;4.20;;
71836;SDS011;59686;51.716;7.016;2022-07-21T13:52:39;5.13;;;4.72;;
71836;SDS011;59686;51.716;7.016;2022-07-21T13:55:06;6.25;;;4.80;;
71836;SDS011;59686;51.716;7.016;2022-07-21T13:57:33;5.53;;;4.47;;
71836;SDS011;59686;51.716;7.016;2022-07-21T13:59:59;5.88;;;4.60;;
71836;SDS011;59686;51.716;7.016;2022-07-21T14:02:25;5.05;;;4.55;;
71836;SDS011;59686;51.716;7.016;2022-07-21T14:04:51;5.25;;;4.70;;
71836;SDS011;59686;51.716;7.016;2022-07-21T14:07:16;8.63;;;4.47;;
71836;SDS011;59686;51.716;7.016;2022-07-21T14:09:42;6.97;;;5.22;;
71836;SDS011;59686;51.716;7.016;2022-07-21T14:12:09;5.43;;;4.93;;
71836;SDS011;59686;51.716;7.016;2022-07-21T14:14:35;7.28;;;4.80;;
71836;SDS011;59686;51.716;7.016;2022-07-21T14:17:01;5.30;;;4.68;;
71836;SDS011;59686;51.716;7.016;2022-07-21T14:19:27;5.63;;;5.10;;
71836;SDS011;59686;51.716;7.016;2022-07-21T14:22:01;6.00;;;5.32;;
71836;SDS011;59686;51.716;7.016;2022-07-21T14:24:27;6.20;;;5.55;;
71836;SDS011;59686;51.716;7.016;2022-07-21T14:27:11;6.18;;;5.57;;
71836;SDS011;59686;51.716;7.016;2022-07-21T14:29:36;5.22;;;4.65;;
71836;SDS011;59686;51.716;7.016;2022-07-21T14:32:02;5.90;;;5.10;;
71836;SDS011;59686;51.716;7.016;2022-07-21T14:34:28;6.20;;;5.53;;
71836;SDS011;59686;51.716;7.016;2022-07-21T14:36:54;8.30;;;5.65;;
71836;SDS011;59686;51.716;7.016;2022-07-21T14:39:19;7.72;;;5.35;;
71836;SDS011;59686;51.716;7.016;2022-07-21T14:41:45;6.10;;;5.50;;
71836;SDS011;59686;51.716;7.016;2022-07-21T14:44:11;7.25;;;5.70;;
71836;SDS011;59686;51.716;7.016;2022-07-21T14:46:38;6.40;;;5.10;;
71836;SDS011;59686;51.716;7.016;2022-07-21T14:49:04;6.85;;;4.90;;
71836;SDS011;59686;51.716;7.016;2022-07-21T14:51:29;6.93;;;5.22;;
71836;SDS011;59686;51.716;7.016;2022-07-21T14:53:55;7.10;;;6.03;;
71836;SDS011;59686;51.716;7.016;2022-07-21T14:56:21;9.80;;;6.10;;
71836;SDS011;59686;51.716;7.016;2022-07-21T14:58:46;6.80;;;6.07;;
71836;SDS011;59686;51.716;7.016;2022-07-21T15:01:12;7.25;;;5.72;;
71836;SDS011;59686;51.716;7.016;2022-07-21T15:03:38;7.28;;;6.50;;
71836;SDS011;59686;51.716;7.016;2022-07-21T15:06:04;7.65;;;6.95;;
71836;SDS011;59686;51.716;7.016;2022-07-21T15:08:30;7.20;;;6.50;;
71836;SDS011;59686;51.716;7.016;2022-07-21T15:10:56;10.23;;;5.97;;
71836;SDS011;59686;51.716;7.016;2022-07-21T15:13:22;8.35;;;6.47;;
71836;SDS011;59686;51.716;7.016;2022-07-21T15:15:52;6.32;;;5.55;;
71836;SDS011;59686;51.716;7.016;2022-07-21T15:18:18;6.78;;;5.78;;
71836;SDS011;59686;51.716;7.016;2022-07-21T15:20:45;5.28;;;4.75;;
71836;SDS011;59686;51.716;7.016;2022-07-21T15:23:10;7.38;;;5.90;;
71836;SDS011;59686;51.716;7.016;2022-07-21T15:25:36;5.78;;;5.00;;
71836;SDS011;59686;51.716;7.016;2022-07-21T15:28:02;6.05;;;5.45;;
71836;SDS011;59686;51.716;7.016;2022-07-21T15:30:29;6.03;;;5.10;;
71836;SDS011;59686;51.716;7.016;2022-07-21T15:32:55;8.70;;;4.32;;
71836;SDS011;59686;51.716;7.016;2022-07-21T15:35:20;5.28;;;4.28;;
71836;SDS011;59686;51.716;7.016;2022-07-21T15:37:46;6.88;;;4.43;;
71836;SDS011;59686;51.716;7.016;2022-07-21T15:40:15;5.53;;;4.50;;
71836;SDS011;59686;51.716;7.016;2022-07-21T15:42:41;6.47;;;5.47;;